sensor_id;sensor_type;location;lat;lon;timestamp;pressure;altitude;pressure_sealevel;temperature;humidity
71559;BME280;59382;43.852;25.952;2023-03-14T00:00:55;101575.47;;;9.95;40.51
71559;BME280;59382;43.852;25.952;2023-03-14T00:03:21;101581.09;;;10.00;40.75
71559;BME280;59382;43.852;25.952;2023-03-14T00:05:49;101591.34;;;10.04;40.71
71559;BME280;59382;43.852;25.952;2023-03-14T00:08:15;101569.22;;;9.94;40.71
71559;BME280;59382;43.852;25.952;2023-03-14T00:10:41;101586.06;;;9.96;40.87
71559;BME280;59382;43.852;25.952;2023-03-14T00:13:06;101581.41;;;9.90;41.11
71559;BME280;59382;43.852;25.952;2023-03-14T00:15:33;101586.97;;;9.89;41.09
71559;BME280;59382;43.852;25.952;2023-03-14T00:17:59;101580.94;;;9.87;40.93
71559;BME280;59382;43.852;25.952;2023-03-14T00:20:24;101568.66;;;9.84;40.84
71559;BME280;59382;43.852;25.952;2023-03-14T00:22:50;101556.56;;;9.80;40.64
71559;BME280;59382;43.852;25.952;2023-03-14T00:25:16;101547.19;;;9.76;40.49
71559;BME280;59382;43.852;25.952;2023-03-14T00:27:41;101537.44;;;9.75;40.50
71559;BME280;59382;43.852;25.952;2023-03-14T00:30:07;101557.50;;;9.87;40.40
71559;BME280;59382;43.852;25.952;2023-03-14T00:32:33;101547.47;;;9.81;40.31
71559;BME280;59382;43.852;25.952;2023-03-14T00:34:58;101559.84;;;9.90;40.58
71559;BME280;59382;43.852;25.952;2023-03-14T00:37:26;101551.38;;;9.93;40.36
71559;BME280;59382;43.852;25.952;2023-03-14T00:39:51;101538.91;;;9.92;40.61
71559;BME280;59382;43.852;25.952;2023-03-14T00:42:17;101540.84;;;9.98;40.58
71559;BME280;59382;43.852;25.952;2023-03-14T00:44:43;101528.59;;;9.96;40.94
71559;BME280;59382;43.852;25.952;2023-03-14T00:47:08;101529.50;;;10.03;40.66
71559;BME280;59382;43.852;25.952;2023-03-14T00:49:34;101528.97;;;9.93;40.83
71559;BME280;59382;43.852;25.952;2023-03-14T00:51:59;101517.53;;;9.76;41.16
71559;BME280;59382;43.852;25.952;2023-03-14T00:54:25;101519.22;;;9.77;41.11
71559;BME280;59382;43.852;25.952;2023-03-14T00:56:50;101509.19;;;9.71;40.93
71559;BME280;59382;43.852;25.952;2023-03-14T00:59:16;101528.97;;;9.78;41.27
71559;BME280;59382;43.852;25.952;2023-03-14T01:01:42;101518.66;;;9.67;41.57
71559;BME280;59382;43.852;25.952;2023-03-14T01:04:07;101517.00;;;9.66;41.42
71559;BME280;59382;43.852;25.952;2023-03-14T01:06:33;101494.03;;;9.56;41.64
71559;BME280;59382;43.852;25.952;2023-03-14T01:08:59;101493.47;;;9.60;41.77
71559;BME280;59382;43.852;25.952;2023-03-14T01:11:27;101491.16;;;9.57;41.61
71559;BME280;59382;43.852;25.952;2023-03-14T01:13:53;101495.25;;;9.53;41.79
71559;BME280;59382;43.852;25.952;2023-03-14T01:16:21;101480.19;;;9.44;41.88
71559;BME280;59382;43.852;25.952;2023-03-14T01:18:47;101491.59;;;9.46;42.17
71559;BME280;59382;43.852;25.952;2023-03-14T01:21:19;101487.91;;;9.47;42.07
71559;BME280;59382;43.852;25.952;2023-03-14T01:23:45;101501.75;;;9.44;42.04
71559;BME280;59382;43.852;25.952;2023-03-14T01:26:14;101507.50;;;9.41;42.38
71559;BME280;59382;43.852;25.952;2023-03-14T01:28:41;101492.47;;;9.32;42.69
71559;BME280;59382;43.852;25.952;2023-03-14T01:31:09;101479.06;;;9.24;42.90
71559;BME280;59382;43.852;25.952;2023-03-14T01:33:35;101506.28;;;9.44;43.22
71559;BME280;59382;43.852;25.952;2023-03-14T01:36:00;101488.84;;;9.40;43.24
71559;BME280;59382;43.852;25.952;2023-03-14T01:38:28;101493.38;;;9.39;42.97
71559;BME280;59382;43.852;25.952;2023-03-14T01:40:54;101499.06;;;9.30;43.14
71559;BME280;59382;43.852;25.952;2023-03-14T01:43:20;101487.97;;;9.10;43.34
71559;BME280;59382;43.852;25.952;2023-03-14T01:54:34;101489.28;;;9.14;43.27
71559;BME280;59382;43.852;25.952;2023-03-14T01:57:09;101467.63;;;9.08;43.38
71559;BME280;59382;43.852;25.952;2023-03-14T01:59:37;101469.56;;;9.14;42.89
71559;BME280;59382;43.852;25.952;2023-03-14T02:02:05;101490.13;;;9.29;43.14
71559;BME280;59382;43.852;25.952;2023-03-14T02:04:34;101481.69;;;9.32;42.84
71559;BME280;59382;43.852;25.952;2023-03-14T02:07:17;101496.75;;;9.41;43.36
71559;BME280;59382;43.852;25.952;2023-03-14T02:09:44;101486.97;;;9.40;43.03
71559;BME280;59382;43.852;25.952;2023-03-14T02:12:11;101479.63;;;9.34;43.33
71559;BME280;59382;43.852;25.952;2023-03-14T02:14:39;101493.84;;;9.43;43.13
71559;BME280;59382;43.852;25.952;2023-03-14T02:17:06;101473.66;;;9.24;43.35
71559;BME280;59382;43.852;25.952;2023-03-14T02:22:37;101499.13;;;9.36;43.73
71559;BME280;59382;43.852;25.952;2023-03-14T02:28:05;101483.41;;;9.11;44.05
71559;BME280;59382;43.852;25.952;2023-03-14T02:30:31;101466.69;;;9.01;44.67
71559;BME280;59382;43.852;25.952;2023-03-14T02:33:06;101485.91;;;9.12;44.71
71559;BME280;59382;43.852;25.952;2023-03-14T02:35:45;101501.69;;;9.15;44.58
71559;BME280;59382;43.852;25.952;2023-03-14T02:40:46;101494.72;;;9.06;44.38
71559;BME280;59382;43.852;25.952;2023-03-14T02:43:12;101489.88;;;9.02;44.49
71559;BME280;59382;43.852;25.952;2023-03-14T02:45:44;101509.88;;;9.07;44.44
71559;BME280;59382;43.852;25.952;2023-03-14T02:48:24;101517.94;;;9.07;45.03
71559;BME280;59382;43.852;25.952;2023-03-14T02:50:53;101518.00;;;8.99;44.70
71559;BME280;59382;43.852;25.952;2023-03-14T02:53:22;101518.56;;;8.95;45.04
71559;BME280;59382;43.852;25.952;2023-03-14T02:55:49;101501.91;;;8.91;44.58
71559;BME280;59382;43.852;25.952;2023-03-14T02:58:16;101517.66;;;9.02;44.76
71559;BME280;59382;43.852;25.952;2023-03-14T03:00:42;101460.72;;;8.76;44.83
71559;BME280;59382;43.852;25.952;2023-03-14T03:03:07;101512.38;;;9.09;44.72
71559;BME280;59382;43.852;25.952;2023-03-14T03:05:33;101497.31;;;9.00;44.68
71559;BME280;59382;43.852;25.952;2023-03-14T03:07:59;101503.47;;;9.08;44.55
71559;BME280;59382;43.852;25.952;2023-03-14T03:10:24;101492.03;;;9.06;44.63
71559;BME280;59382;43.852;25.952;2023-03-14T03:12:50;101487.69;;;9.05;44.74
71559;BME280;59382;43.852;25.952;2023-03-14T03:15:17;101498.75;;;9.10;44.70
71559;BME280;59382;43.852;25.952;2023-03-14T03:17:42;101487.69;;;9.05;44.60
71559;BME280;59382;43.852;25.952;2023-03-14T03:20:08;101484.78;;;8.92;44.96
71559;BME280;59382;43.852;25.952;2023-03-14T03:22:35;101481.88;;;8.79;45.16
71559;BME280;59382;43.852;25.952;2023-03-14T03:25:03;101496.91;;;8.88;45.39
71559;BME280;59382;43.852;25.952;2023-03-14T03:27:33;101497.19;;;8.93;45.53
71559;BME280;59382;43.852;25.952;2023-03-14T03:29:59;101471.75;;;8.81;45.40
71559;BME280;59382;43.852;25.952;2023-03-14T03:32:25;101482.16;;;8.84;45.45
71559;BME280;59382;43.852;25.952;2023-03-14T03:34:51;101487.16;;;8.87;45.53
71559;BME280;59382;43.852;25.952;2023-03-14T03:37:17;101485.59;;;8.93;45.77
71559;BME280;59382;43.852;25.952;2023-03-14T03:39:43;101478.38;;;8.93;45.82
71559;BME280;59382;43.852;25.952;2023-03-14T03:42:09;101472.78;;;8.95;45.61
71559;BME280;59382;43.852;25.952;2023-03-14T03:44:35;101434.38;;;8.86;45.19
71559;BME280;59382;43.852;25.952;2023-03-14T03:47:00;101446.44;;;8.90;45.12
71559;BME280;59382;43.852;25.952;2023-03-14T03:49:30;101439.38;;;8.89;44.99
71559;BME280;59382;43.852;25.952;2023-03-14T03:51:56;101436.69;;;8.89;44.80
71559;BME280;59382;43.852;25.952;2023-03-14T03:54:21;101450.72;;;8.99;45.00
71559;BME280;59382;43.852;25.952;2023-03-14T03:56:47;101432.69;;;8.85;44.72
71559;BME280;59382;43.852;25.952;2023-03-14T03:59:13;101439.38;;;8.89;45.20
71559;BME280;59382;43.852;25.952;2023-03-14T04:01:38;101443.75;;;8.90;45.67
71559;BME280;59382;43.852;25.952;2023-03-14T04:04:04;101419.97;;;8.79;45.95
71559;BME280;59382;43.852;25.952;2023-03-14T04:06:29;101427.94;;;8.87;46.23
71559;BME280;59382;43.852;25.952;2023-03-14T04:08:55;101425.44;;;8.86;46.08
71559;BME280;59382;43.852;25.952;2023-03-14T04:11:20;101423.97;;;8.83;46.30
71559;BME280;59382;43.852;25.952;2023-03-14T04:13:46;101400.19;;;8.72;46.33
71559;BME280;59382;43.852;25.952;2023-03-14T04:16:20;101412.53;;;8.81;46.60
71559;BME280;59382;43.852;25.952;2023-03-14T04:18:47;101392.03;;;8.66;46.60
71559;BME280;59382;43.852;25.952;2023-03-14T04:21:13;101409.22;;;8.79;46.66
71559;BME280;59382;43.852;25.952;2023-03-14T04:23:38;101404.28;;;8.83;46.65
71559;BME280;59382;43.852;25.952;2023-03-14T04:26:07;101405.56;;;8.87;46.61
71559;BME280;59382;43.852;25.952;2023-03-14T04:28:33;101392.69;;;8.82;46.33
71559;BME280;59382;43.852;25.952;2023-03-14T04:31:07;101368.34;;;8.61;47.01
71559;BME280;59382;43.852;25.952;2023-03-14T04:33:32;101386.63;;;8.66;46.83
71559;BME280;59382;43.852;25.952;2023-03-14T04:35:58;101385.41;;;8.54;47.17
71559;BME280;59382;43.852;25.952;2023-03-14T04:38:23;101386.41;;;8.53;47.19
71559;BME280;59382;43.852;25.952;2023-03-14T04:40:50;101388.91;;;8.54;47.25
71559;BME280;59382;43.852;25.952;2023-03-14T04:43:15;101383.53;;;8.54;47.46
71559;BME280;59382;43.852;25.952;2023-03-14T04:45:41;101380.28;;;8.59;46.87
71559;BME280;59382;43.852;25.952;2023-03-14T04:48:07;101394.41;;;8.61;47.26
71559;BME280;59382;43.852;25.952;2023-03-14T04:50:32;101390.59;;;8.55;47.24
71559;BME280;59382;43.852;25.952;2023-03-14T04:52:58;101379.50;;;8.36;47.16
71559;BME280;59382;43.852;25.952;2023-03-14T04:55:23;101400.53;;;8.32;47.36
71559;BME280;59382;43.852;25.952;2023-03-14T04:57:49;101412.84;;;8.27;47.80
71559;BME280;59382;43.852;25.952;2023-03-14T05:00:15;101415.56;;;8.19;47.69
71559;BME280;59382;43.852;25.952;2023-03-14T05:02:43;101398.47;;;7.89;47.84
71559;BME280;59382;43.852;25.952;2023-03-14T05:05:09;101416.16;;;7.75;47.58
71559;BME280;59382;43.852;25.952;2023-03-14T05:07:35;101421.72;;;7.74;47.86
71559;BME280;59382;43.852;25.952;2023-03-14T05:10:01;101436.50;;;7.78;47.56
71559;BME280;59382;43.852;25.952;2023-03-14T05:12:26;101436.31;;;7.79;47.39
71559;BME280;59382;43.852;25.952;2023-03-14T05:14:52;101445.66;;;7.91;46.69
71559;BME280;59382;43.852;25.952;2023-03-14T05:17:17;101436.44;;;7.86;46.54
71559;BME280;59382;43.852;25.952;2023-03-14T05:19:44;101449.34;;;7.90;46.84
71559;BME280;59382;43.852;25.952;2023-03-14T05:22:10;101459.28;;;7.90;46.56
71559;BME280;59382;43.852;25.952;2023-03-14T05:24:35;101430.94;;;7.79;46.46
71559;BME280;59382;43.852;25.952;2023-03-14T05:27:02;101432.41;;;7.90;46.08
71559;BME280;59382;43.852;25.952;2023-03-14T05:29:30;101424.97;;;7.92;45.89
71559;BME280;59382;43.852;25.952;2023-03-14T05:31:56;101428.59;;;8.07;46.11
71559;BME280;59382;43.852;25.952;2023-03-14T05:34:21;101406.53;;;8.12;45.74
71559;BME280;59382;43.852;25.952;2023-03-14T05:36:47;101423.38;;;8.36;45.39
71559;BME280;59382;43.852;25.952;2023-03-14T05:39:12;101409.66;;;8.46;45.13
71559;BME280;59382;43.852;25.952;2023-03-14T05:41:38;101410.03;;;8.80;44.93
71559;BME280;59382;43.852;25.952;2023-03-14T05:44:03;101406.47;;;9.16;44.53
71559;BME280;59382;43.852;25.952;2023-03-14T05:46:29;101413.22;;;9.56;43.86
71559;BME280;59382;43.852;25.952;2023-03-14T05:48:58;101376.84;;;9.66;43.64
71559;BME280;59382;43.852;25.952;2023-03-14T05:51:24;101402.38;;;10.21;43.42
71559;BME280;59382;43.852;25.952;2023-03-14T05:53:50;101410.44;;;10.63;42.83
71559;BME280;59382;43.852;25.952;2023-03-14T05:56:16;101384.66;;;10.81;41.97
71559;BME280;59382;43.852;25.952;2023-03-14T05:58:41;101398.56;;;11.12;41.82
71559;BME280;59382;43.852;25.952;2023-03-14T06:01:07;101395.13;;;11.31;41.13
71559;BME280;59382;43.852;25.952;2023-03-14T06:03:33;101401.44;;;11.45;40.98
71559;BME280;59382;43.852;25.952;2023-03-14T06:05:59;101402.09;;;11.53;41.06
71559;BME280;59382;43.852;25.952;2023-03-14T06:08:26;101395.88;;;11.53;41.28
71559;BME280;59382;43.852;25.952;2023-03-14T06:10:52;101392.53;;;11.51;41.42
71559;BME280;59382;43.852;25.952;2023-03-14T06:13:18;101366.06;;;11.33;41.54
71559;BME280;59382;43.852;25.952;2023-03-14T06:15:44;101394.63;;;11.55;41.44
71559;BME280;59382;43.852;25.952;2023-03-14T06:18:09;101380.91;;;11.57;41.80
71559;BME280;59382;43.852;25.952;2023-03-14T06:20:38;101397.09;;;11.91;41.36
71559;BME280;59382;43.852;25.952;2023-03-14T06:23:08;101399.03;;;12.23;41.34
71559;BME280;59382;43.852;25.952;2023-03-14T06:25:34;101383.66;;;12.43;40.93
71559;BME280;59382;43.852;25.952;2023-03-14T06:28:00;101392.81;;;12.68;40.76
71559;BME280;59382;43.852;25.952;2023-03-14T06:30:26;101388.25;;;12.88;40.53
71559;BME280;59382;43.852;25.952;2023-03-14T06:32:52;101376.16;;;13.04;40.08
71559;BME280;59382;43.852;25.952;2023-03-14T06:35:18;101382.34;;;13.30;40.23
71559;BME280;59382;43.852;25.952;2023-03-14T06:37:43;101380.63;;;13.42;39.73
71559;BME280;59382;43.852;25.952;2023-03-14T06:40:10;101392.69;;;13.53;39.13
71559;BME280;59382;43.852;25.952;2023-03-14T06:42:37;101401.94;;;13.39;39.26
71559;BME280;59382;43.852;25.952;2023-03-14T06:45:04;101397.59;;;13.18;39.56
71559;BME280;59382;43.852;25.952;2023-03-14T06:47:31;101389.50;;;12.79;39.70
71559;BME280;59382;43.852;25.952;2023-03-14T06:49:56;101401.56;;;12.77;39.76
71559;BME280;59382;43.852;25.952;2023-03-14T06:52:22;101404.91;;;12.59;40.03
71559;BME280;59382;43.852;25.952;2023-03-14T06:54:47;101392.41;;;12.39;40.72
71559;BME280;59382;43.852;25.952;2023-03-14T06:57:13;101397.84;;;12.58;40.48
71559;BME280;59382;43.852;25.952;2023-03-14T06:59:38;101394.47;;;12.69;39.94
71559;BME280;59382;43.852;25.952;2023-03-14T07:02:04;101367.84;;;12.79;39.62
71559;BME280;59382;43.852;25.952;2023-03-14T07:04:29;101381.16;;;13.13;39.37
71559;BME280;59382;43.852;25.952;2023-03-14T07:06:54;101336.50;;;13.22;38.84
71559;BME280;59382;43.852;25.952;2023-03-14T07:09:20;101333.69;;;13.48;38.43
71559;BME280;59382;43.852;25.952;2023-03-14T07:11:46;101352.47;;;13.88;38.34
71559;BME280;59382;43.852;25.952;2023-03-14T07:14:11;101363.56;;;14.17;37.92
71559;BME280;59382;43.852;25.952;2023-03-14T07:16:37;101351.81;;;14.30;37.59
71559;BME280;59382;43.852;25.952;2023-03-14T07:19:03;101338.59;;;14.40;37.37
71559;BME280;59382;43.852;25.952;2023-03-14T07:21:28;101353.00;;;14.65;37.06
71559;BME280;59382;43.852;25.952;2023-03-14T07:23:54;101348.00;;;14.86;36.65
71559;BME280;59382;43.852;25.952;2023-03-14T07:26:20;101349.00;;;15.10;36.37
71559;BME280;59382;43.852;25.952;2023-03-14T07:28:45;101343.91;;;15.13;35.26
71559;BME280;59382;43.852;25.952;2023-03-14T07:31:11;101347.19;;;15.22;35.70
71559;BME280;59382;43.852;25.952;2023-03-14T07:33:37;101333.81;;;15.20;35.55
71559;BME280;59382;43.852;25.952;2023-03-14T07:36:02;101352.09;;;15.31;34.97
71559;BME280;59382;43.852;25.952;2023-03-14T07:38:28;101343.41;;;15.23;34.93
71559;BME280;59382;43.852;25.952;2023-03-14T07:41:01;101346.13;;;15.23;34.31
71559;BME280;59382;43.852;25.952;2023-03-14T07:43:27;101349.00;;;15.46;34.42
71559;BME280;59382;43.852;25.952;2023-03-14T07:45:53;101342.19;;;15.55;34.17
71559;BME280;59382;43.852;25.952;2023-03-14T07:48:18;101342.34;;;15.60;33.82
71559;BME280;59382;43.852;25.952;2023-03-14T07:50:48;101344.47;;;15.58;33.77
71559;BME280;59382;43.852;25.952;2023-03-14T07:53:13;101338.91;;;15.53;33.75
71559;BME280;59382;43.852;25.952;2023-03-14T07:55:40;101345.53;;;15.57;33.50
71559;BME280;59382;43.852;25.952;2023-03-14T07:58:05;101336.47;;;15.63;33.38
71559;BME280;59382;43.852;25.952;2023-03-14T08:00:31;101336.63;;;15.68;32.83
71559;BME280;59382;43.852;25.952;2023-03-14T08:02:57;101333.97;;;15.61;33.04
71559;BME280;59382;43.852;25.952;2023-03-14T08:05:23;101328.75;;;15.60;33.08
71559;BME280;59382;43.852;25.952;2023-03-14T08:07:49;101333.75;;;15.63;33.08
71559;BME280;59382;43.852;25.952;2023-03-14T08:10:14;101334.84;;;15.73;32.91
71559;BME280;59382;43.852;25.952;2023-03-14T08:12:52;101328.94;;;15.77;32.85
71559;BME280;59382;43.852;25.952;2023-03-14T08:15:19;101317.22;;;15.76;32.42
71559;BME280;59382;43.852;25.952;2023-03-14T08:17:45;101281.91;;;15.58;32.32
71559;BME280;59382;43.852;25.952;2023-03-14T08:20:25;101303.50;;;15.71;32.26
71559;BME280;59382;43.852;25.952;2023-03-14T08:22:51;101315.97;;;15.79;32.24
71559;BME280;59382;43.852;25.952;2023-03-14T08:25:18;101317.03;;;15.89;32.15
71559;BME280;59382;43.852;25.952;2023-03-14T08:27:43;101310.56;;;15.90;31.84
71559;BME280;59382;43.852;25.952;2023-03-14T08:30:11;101294.50;;;15.70;32.25
71559;BME280;59382;43.852;25.952;2023-03-14T08:32:37;101307.56;;;15.80;32.11
71559;BME280;59382;43.852;25.952;2023-03-14T08:35:04;101298.78;;;15.78;31.90
71559;BME280;59382;43.852;25.952;2023-03-14T08:37:34;101297.72;;;15.79;31.80
71559;BME280;59382;43.852;25.952;2023-03-14T08:40:00;101310.28;;;15.80;31.85
71559;BME280;59382;43.852;25.952;2023-03-14T08:42:25;101300.44;;;15.79;31.74
71559;BME280;59382;43.852;25.952;2023-03-14T08:44:52;101301.38;;;15.73;31.73
71559;BME280;59382;43.852;25.952;2023-03-14T08:47:18;101274.81;;;15.57;32.09
71559;BME280;59382;43.852;25.952;2023-03-14T08:49:43;101267.78;;;15.49;31.97
71559;BME280;59382;43.852;25.952;2023-03-14T08:52:09;101277.38;;;15.52;31.79
71559;BME280;59382;43.852;25.952;2023-03-14T08:54:34;101266.28;;;15.53;31.63
71559;BME280;59382;43.852;25.952;2023-03-14T08:57:00;101256.91;;;15.49;31.93
71559;BME280;59382;43.852;25.952;2023-03-14T08:59:25;101270.75;;;15.48;31.98
71559;BME280;59382;43.852;25.952;2023-03-14T09:01:51;101263.03;;;15.45;32.19
71559;BME280;59382;43.852;25.952;2023-03-14T09:04:20;101259.41;;;15.51;32.10
71559;BME280;59382;43.852;25.952;2023-03-14T09:06:47;101252.91;;;15.52;31.80
71559;BME280;59382;43.852;25.952;2023-03-14T09:09:12;101245.34;;;15.54;31.87
71559;BME280;59382;43.852;25.952;2023-03-14T09:11:39;101225.19;;;15.43;31.64
71559;BME280;59382;43.852;25.952;2023-03-14T09:14:04;101227.22;;;15.48;31.51
71559;BME280;59382;43.852;25.952;2023-03-14T09:16:30;101235.88;;;15.56;31.47
71559;BME280;59382;43.852;25.952;2023-03-14T09:18:55;101188.59;;;15.28;31.06
71559;BME280;59382;43.852;25.952;2023-03-14T09:21:25;101222.97;;;15.52;31.32
71559;BME280;59382;43.852;25.952;2023-03-14T09:23:51;101214.25;;;15.50;31.26
71559;BME280;59382;43.852;25.952;2023-03-14T09:26:16;101209.59;;;15.50;31.19
71559;BME280;59382;43.852;25.952;2023-03-14T09:28:42;101195.66;;;15.47;31.06
71559;BME280;59382;43.852;25.952;2023-03-14T09:31:10;101215.56;;;15.59;31.05
71559;BME280;59382;43.852;25.952;2023-03-14T09:33:37;101185.81;;;15.46;31.07
71559;BME280;59382;43.852;25.952;2023-03-14T09:36:03;101187.97;;;15.44;30.90
71559;BME280;59382;43.852;25.952;2023-03-14T09:38:29;101189.00;;;15.43;30.89
71559;BME280;59382;43.852;25.952;2023-03-14T09:40:57;101188.44;;;15.41;30.80
71559;BME280;59382;43.852;25.952;2023-03-14T09:43:24;101180.03;;;15.42;31.14
71559;BME280;59382;43.852;25.952;2023-03-14T09:45:52;101179.56;;;15.45;31.32
71559;BME280;59382;43.852;25.952;2023-03-14T09:48:26;101163.03;;;15.47;31.35
71559;BME280;59382;43.852;25.952;2023-03-14T09:50:54;101167.19;;;15.61;30.74
71559;BME280;59382;43.852;25.952;2023-03-14T09:53:24;101150.63;;;15.51;30.69
71559;BME280;59382;43.852;25.952;2023-03-14T09:55:51;101152.25;;;15.52;30.91
71559;BME280;59382;43.852;25.952;2023-03-14T09:58:22;101153.72;;;15.66;30.93
71559;BME280;59382;43.852;25.952;2023-03-14T10:00:53;101145.09;;;15.69;30.99
71559;BME280;59382;43.852;25.952;2023-03-14T10:03:32;101137.41;;;15.66;30.93
71559;BME280;59382;43.852;25.952;2023-03-14T10:05:57;101113.97;;;15.65;30.79
71559;BME280;59382;43.852;25.952;2023-03-14T10:08:23;101119.75;;;15.68;30.92
71559;BME280;59382;43.852;25.952;2023-03-14T10:10:49;101124.63;;;15.78;30.82
71559;BME280;59382;43.852;25.952;2023-03-14T10:13:26;101121.22;;;15.83;30.88
71559;BME280;59382;43.852;25.952;2023-03-14T10:15:55;101114.81;;;15.89;30.75
71559;BME280;59382;43.852;25.952;2023-03-14T10:18:23;101112.81;;;15.84;31.03
71559;BME280;59382;43.852;25.952;2023-03-14T10:20:52;101072.56;;;15.63;30.93
71559;BME280;59382;43.852;25.952;2023-03-14T10:23:28;101094.56;;;15.73;31.05
71559;BME280;59382;43.852;25.952;2023-03-14T10:26:02;101105.13;;;15.81;30.66
71559;BME280;59382;43.852;25.952;2023-03-14T10:28:31;101072.00;;;15.73;30.94
71559;BME280;59382;43.852;25.952;2023-03-14T10:30:59;101076.13;;;15.87;31.09
71559;BME280;59382;43.852;25.952;2023-03-14T10:33:33;101088.53;;;16.06;30.27
71559;BME280;59382;43.852;25.952;2023-03-14T10:36:02;101064.50;;;16.03;30.77
71559;BME280;59382;43.852;25.952;2023-03-14T10:38:33;101070.44;;;16.11;30.60
71559;BME280;59382;43.852;25.952;2023-03-14T10:41:00;101067.13;;;16.09;30.52
71559;BME280;59382;43.852;25.952;2023-03-14T10:43:35;101042.97;;;16.01;30.02
71559;BME280;59382;43.852;25.952;2023-03-14T10:46:09;101041.53;;;16.10;30.38
71559;BME280;59382;43.852;25.952;2023-03-14T10:48:37;101032.81;;;16.08;30.21
71559;BME280;59382;43.852;25.952;2023-03-14T10:51:24;101035.00;;;16.23;29.79
71559;BME280;59382;43.852;25.952;2023-03-14T10:56:24;101016.28;;;16.38;29.93
71559;BME280;59382;43.852;25.952;2023-03-14T10:58:52;101018.88;;;16.44;29.78
71559;BME280;59382;43.852;25.952;2023-03-14T11:18:43;100979.09;;;16.43;29.74
71559;BME280;59382;43.852;25.952;2023-03-14T11:21:29;100958.47;;;16.47;29.11
71559;BME280;59382;43.852;25.952;2023-03-14T11:27:21;100946.69;;;16.58;28.79
71559;BME280;59382;43.852;25.952;2023-03-14T11:30:18;100939.66;;;16.62;29.20
71559;BME280;59382;43.852;25.952;2023-03-14T11:32:56;100926.63;;;16.64;28.88
71559;BME280;59382;43.852;25.952;2023-03-14T11:35:28;100917.97;;;16.67;28.93
71559;BME280;59382;43.852;25.952;2023-03-14T11:40:36;100889.56;;;16.63;28.60
71559;BME280;59382;43.852;25.952;2023-03-14T11:43:20;100866.44;;;16.49;28.21
71559;BME280;59382;43.852;25.952;2023-03-14T11:45:51;100881.47;;;16.68;28.23
71559;BME280;59382;43.852;25.952;2023-03-14T11:51:14;100868.28;;;16.77;28.15
71559;BME280;59382;43.852;25.952;2023-03-14T11:53:48;100845.78;;;16.70;27.62
71559;BME280;59382;43.852;25.952;2023-03-14T11:56:55;100850.00;;;16.77;27.46
71559;BME280;59382;43.852;25.952;2023-03-14T12:00:05;100838.38;;;16.82;26.97
71559;BME280;59382;43.852;25.952;2023-03-14T12:10:49;100796.44;;;16.66;26.75
71559;BME280;59382;43.852;25.952;2023-03-14T12:13:17;100814.22;;;16.90;26.95
71559;BME280;59382;43.852;25.952;2023-03-14T12:15:57;100808.28;;;16.93;26.51
71559;BME280;59382;43.852;25.952;2023-03-14T12:20:56;100795.22;;;16.95;26.65
71559;BME280;59382;43.852;25.952;2023-03-14T12:23:23;100779.03;;;16.89;26.51
71559;BME280;59382;43.852;25.952;2023-03-14T12:26:16;100787.13;;;17.00;26.18
71559;BME280;59382;43.852;25.952;2023-03-14T12:28:44;100791.09;;;17.09;26.35
71559;BME280;59382;43.852;25.952;2023-03-14T12:42:10;100752.66;;;17.32;24.37
71559;BME280;59382;43.852;25.952;2023-03-14T12:49:49;100733.81;;;17.52;24.69
71559;BME280;59382;43.852;25.952;2023-03-14T12:54:52;100737.28;;;17.70;24.08
71559;BME280;59382;43.852;25.952;2023-03-14T12:57:59;100724.72;;;17.69;24.09
71559;BME280;59382;43.852;25.952;2023-03-14T13:00:32;100713.84;;;17.74;24.07
71559;BME280;59382;43.852;25.952;2023-03-14T13:03:17;100710.03;;;17.75;23.72
71559;BME280;59382;43.852;25.952;2023-03-14T13:06:02;100714.50;;;17.86;23.19
71559;BME280;59382;43.852;25.952;2023-03-14T13:08:38;100704.72;;;17.90;22.91
71559;BME280;59382;43.852;25.952;2023-03-14T13:11:15;100703.13;;;17.94;23.19
71559;BME280;59382;43.852;25.952;2023-03-14T13:13:56;100692.13;;;17.89;22.71
71559;BME280;59382;43.852;25.952;2023-03-14T13:16:22;100700.13;;;17.95;22.92
71559;BME280;59382;43.852;25.952;2023-03-14T13:18:49;100692.78;;;18.01;22.88
71559;BME280;59382;43.852;25.952;2023-03-14T13:21:21;100689.59;;;18.09;22.74
71559;BME280;59382;43.852;25.952;2023-03-14T13:26:25;100648.81;;;17.97;22.46
71559;BME280;59382;43.852;25.952;2023-03-14T13:28:57;100673.53;;;18.17;22.48
71559;BME280;59382;43.852;25.952;2023-03-14T13:31:24;100671.06;;;18.16;22.33
71559;BME280;59382;43.852;25.952;2023-03-14T13:33:58;100649.69;;;18.03;22.14
71559;BME280;59382;43.852;25.952;2023-03-14T13:36:25;100662.09;;;18.20;22.27
71559;BME280;59382;43.852;25.952;2023-03-14T13:39:00;100640.19;;;18.10;21.96
71559;BME280;59382;43.852;25.952;2023-03-14T13:41:30;100658.00;;;18.18;21.76
71559;BME280;59382;43.852;25.952;2023-03-14T13:44:13;100612.81;;;18.00;21.58
71559;BME280;59382;43.852;25.952;2023-03-14T13:46:40;100624.63;;;18.11;22.21
71559;BME280;59382;43.852;25.952;2023-03-14T13:49:12;100617.50;;;18.10;21.71
71559;BME280;59382;43.852;25.952;2023-03-14T13:51:46;100620.81;;;18.12;21.76
71559;BME280;59382;43.852;25.952;2023-03-14T13:54:19;100625.75;;;18.15;21.92
71559;BME280;59382;43.852;25.952;2023-03-14T13:56:46;100618.91;;;18.17;22.00
71559;BME280;59382;43.852;25.952;2023-03-14T13:59:25;100606.06;;;18.13;21.74
71559;BME280;59382;43.852;25.952;2023-03-14T14:01:52;100601.22;;;18.20;21.80
71559;BME280;59382;43.852;25.952;2023-03-14T14:04:21;100611.56;;;18.23;21.67
71559;BME280;59382;43.852;25.952;2023-03-14T14:06:56;100597.38;;;18.21;21.30
71559;BME280;59382;43.852;25.952;2023-03-14T14:09:25;100598.19;;;18.21;21.59